createdAt,value
2023-12-30T00:00:33.335Z,79.92
2023-12-30T00:03:02.951Z,79.60
2023-12-30T00:05:31.135Z,78.81
2023-12-30T00:07:59.111Z,79.33
2023-12-30T00:10:27.157Z,79.73
2023-12-30T00:12:55.163Z,79.08
2023-12-30T00:15:23.140Z,79.00
2023-12-30T00:17:51.193Z,78.16
2023-12-30T00:20:20.643Z,78.60
2023-12-30T00:22:48.895Z,78.97
2023-12-30T00:25:17.666Z,79.41
2023-12-30T00:27:45.815Z,79.66
2023-12-30T00:30:14.991Z,79.15
2023-12-30T00:32:43.080Z,79.25
2023-12-30T00:35:11.490Z,78.70
2023-12-30T00:37:40.772Z,78.87
2023-12-30T00:40:09.733Z,78.52
2023-12-30T00:42:37.888Z,77.80
2023-12-30T00:45:07.927Z,77.53
2023-12-30T00:47:35.844Z,77.83
2023-12-30T00:50:03.917Z,77.99
2023-12-30T00:52:31.950Z,77.83
2023-12-30T00:55:01.366Z,77.43
2023-12-30T00:57:29.378Z,76.54
2023-12-30T00:59:57.422Z,77.29
2023-12-30T01:02:25.541Z,77.59
2023-12-30T01:04:53.857Z,77.27
2023-12-30T01:07:21.895Z,76.97
2023-12-30T01:09:49.820Z,76.99
2023-12-30T01:12:19.274Z,77.03
2023-12-30T01:14:47.346Z,76.52
2023-12-30T01:17:15.324Z,76.93
2023-12-30T01:19:43.558Z,76.45
2023-12-30T01:22:12.268Z,77.07
2023-12-30T01:24:40.257Z,77.21
2023-12-30T01:27:08.253Z,77.29
2023-12-30T01:29:37.553Z,76.87
2023-12-30T01:32:06.044Z,77.26
2023-12-30T01:34:34.100Z,77.93
2023-12-30T01:37:02.666Z,77.39
2023-12-30T01:39:30.649Z,77.16
2023-12-30T01:41:58.584Z,77.76
2023-12-30T01:44:26.629Z,78.75
2023-12-30T01:46:56.398Z,79.01
2023-12-30T01:49:24.205Z,78.49
2023-12-30T01:51:54.430Z,78.42
2023-12-30T01:54:23.437Z,78.09
2023-12-30T01:56:51.700Z,78.19
2023-12-30T01:59:20.951Z,78.19
2023-12-30T02:01:49.348Z,78.34
2023-12-30T02:04:19.210Z,78.17
2023-12-30T02:06:47.321Z,78.03
2023-12-30T02:09:15.572Z,77.52
2023-12-30T02:11:43.857Z,77.55
2023-12-30T02:14:24.695Z,77.52
2023-12-30T02:16:52.811Z,77.40
2023-12-30T02:19:22.397Z,77.21
2023-12-30T02:21:51.167Z,77.37
2023-12-30T02:24:21.036Z,77.25
2023-12-30T02:26:49.218Z,76.54
2023-12-30T02:29:17.275Z,76.63
2023-12-30T02:31:48.412Z,76.48
2023-12-30T02:34:17.357Z,77.09
2023-12-30T02:36:46.275Z,76.90
2023-12-30T02:39:14.576Z,77.59
2023-12-30T02:41:44.215Z,77.33
2023-12-30T02:44:12.331Z,77.04
2023-12-30T02:47:04.096Z,77.73
2023-12-30T02:49:41.086Z,77.51
2023-12-30T02:52:15.198Z,77.29
2023-12-30T02:54:43.165Z,77.57
2023-12-30T02:57:12.446Z,77.25
2023-12-30T02:59:40.339Z,77.30
2023-12-30T03:02:08.996Z,77.46
2023-12-30T03:04:37.078Z,76.60
2023-12-30T03:07:05.314Z,75.50
2023-12-30T03:09:33.242Z,76.92
2023-12-30T03:12:03.210Z,77.01
2023-12-30T03:14:32.624Z,77.12
2023-12-30T03:17:00.558Z,77.56
2023-12-30T03:19:28.597Z,77.82
2023-12-30T03:21:56.590Z,77.60
2023-12-30T03:24:24.535Z,77.96
2023-12-30T03:26:52.468Z,78.16
2023-12-30T03:29:21.082Z,77.89
2023-12-30T03:31:50.432Z,77.83
2023-12-30T03:34:18.497Z,77.38
2023-12-30T03:36:46.498Z,77.30
2023-12-30T03:39:15.210Z,77.31
2023-12-30T03:41:43.162Z,76.86
2023-12-30T03:44:12.102Z,76.83
2023-12-30T03:46:42.065Z,76.71
2023-12-30T03:49:11.449Z,76.44
2023-12-30T03:51:39.593Z,76.51
2023-12-30T03:54:07.541Z,76.33
2023-12-30T03:56:40.187Z,76.14
2023-12-30T03:59:08.150Z,75.87
2023-12-30T04:01:36.687Z,76.06
2023-12-30T04:04:05.229Z,75.46
2023-12-30T04:06:34.590Z,75.72
2023-12-30T04:09:02.572Z,75.45
2023-12-30T04:11:30.624Z,74.91
2023-12-30T04:13:58.757Z,75.36
2023-12-30T04:16:26.792Z,75.59
2023-12-30T04:18:55.026Z,75.80
2023-12-30T04:21:25.457Z,75.38
2023-12-30T04:23:54.736Z,75.67
2023-12-30T04:26:22.660Z,75.21
2023-12-30T04:28:50.752Z,75.31
2023-12-30T04:31:18.775Z,75.43
2023-12-30T04:33:46.901Z,76.03
2023-12-30T04:36:14.963Z,75.62
2023-12-30T04:38:44.938Z,75.93
2023-12-30T04:41:15.767Z,75.82
2023-12-30T04:43:43.747Z,75.22
2023-12-30T04:46:13.446Z,75.29
2023-12-30T04:48:41.641Z,75.20
2023-12-30T04:51:10.060Z,75.70
2023-12-30T04:53:38.088Z,75.64
2023-12-30T04:56:08.082Z,75.75
2023-12-30T04:58:37.398Z,75.73
2023-12-30T05:01:05.879Z,75.64
2023-12-30T05:03:33.991Z,75.13
2023-12-30T05:06:01.973Z,75.16
2023-12-30T05:08:30.216Z,74.93
2023-12-30T05:10:58.164Z,75.25
2023-12-30T05:13:26.236Z,75.10
2023-12-30T05:15:55.651Z,74.75
2023-12-30T05:18:23.650Z,74.79
2023-12-30T05:20:51.620Z,74.77
2023-12-30T05:23:19.515Z,75.05
2023-12-30T05:25:47.437Z,74.20
2023-12-30T05:28:15.651Z,74.48
2023-12-30T05:30:43.636Z,74.97
2023-12-30T05:33:13.223Z,75.31
2023-12-30T05:35:41.768Z,76.70
2023-12-30T05:38:13.477Z,76.40
2023-12-30T05:40:41.777Z,77.07
2023-12-30T05:43:09.712Z,77.32
2023-12-30T05:45:37.712Z,79.24
2023-12-30T05:48:06.336Z,78.43
2023-12-30T05:50:35.650Z,78.60
2023-12-30T05:53:04.102Z,78.80
2023-12-30T05:55:32.280Z,79.99
2023-12-30T05:58:00.275Z,79.29
2023-12-30T06:00:28.171Z,78.45
2023-12-30T06:02:56.093Z,78.58
2023-12-30T06:05:24.016Z,78.56
2023-12-30T06:07:53.362Z,77.46
2023-12-30T06:10:21.953Z,76.92
2023-12-30T06:12:49.848Z,76.02
2023-12-30T06:15:17.735Z,76.02
2023-12-30T06:17:45.726Z,75.77
2023-12-30T06:20:13.750Z,75.68
2023-12-30T06:22:41.675Z,75.09
2023-12-30T06:25:11.216Z,75.37
2023-12-30T06:27:39.138Z,75.27
2023-12-30T06:30:08.987Z,75.03
2023-12-30T06:32:37.050Z,74.80
2023-12-30T06:35:05.422Z,74.47
2023-12-30T06:37:33.400Z,74.26
2023-12-30T06:40:01.344Z,74.85
2023-12-30T06:42:30.707Z,74.94
2023-12-30T06:44:58.792Z,75.00
2023-12-30T06:47:26.814Z,74.79
2023-12-30T06:49:54.797Z,75.00
2023-12-30T06:52:24.655Z,74.87
2023-12-30T06:55:02.625Z,74.33
2023-12-30T06:57:39.985Z,74.79
2023-12-30T07:00:09.214Z,74.05
2023-12-30T07:02:37.179Z,74.26
2023-12-30T07:05:05.763Z,74.37
2023-12-30T07:07:33.909Z,74.15
2023-12-30T07:10:01.854Z,74.09
2023-12-30T07:12:29.858Z,74.17
2023-12-30T07:14:59.671Z,74.44
2023-12-30T07:17:28.186Z,74.54
2023-12-30T07:19:56.958Z,75.25
2023-12-30T07:22:25.873Z,75.30
2023-12-30T07:24:53.939Z,74.68
2023-12-30T07:27:21.848Z,74.42
2023-12-30T07:29:49.773Z,74.60
2023-12-30T07:32:19.144Z,74.05
2023-12-30T07:34:47.212Z,74.75
2023-12-30T07:37:15.247Z,74.01
2023-12-30T07:39:43.553Z,74.02
2023-12-30T07:42:11.440Z,74.46
2023-12-30T07:44:39.697Z,74.36
2023-12-30T07:47:08.254Z,74.60
2023-12-30T07:49:38.066Z,74.29
2023-12-30T07:52:06.731Z,74.42
2023-12-30T07:54:34.735Z,74.29
2023-12-30T07:57:02.731Z,73.75
2023-12-30T07:59:30.599Z,73.93
2023-12-30T08:01:58.629Z,74.32
2023-12-30T08:04:26.825Z,73.78
2023-12-30T08:06:56.143Z,74.67
2023-12-30T08:09:24.558Z,74.58
2023-12-30T08:11:59.532Z,74.46
2023-12-30T08:14:30.959Z,74.42
2023-12-30T08:16:59.924Z,74.19
2023-12-30T08:19:28.043Z,74.40
2023-12-30T08:21:58.315Z,73.89
2023-12-30T08:24:29.350Z,74.13
2023-12-30T08:27:00.472Z,74.32
2023-12-30T08:29:28.371Z,74.65
2023-12-30T08:31:56.375Z,74.25
2023-12-30T08:34:29.107Z,74.14
2023-12-30T08:36:58.588Z,74.11
2023-12-30T08:39:26.578Z,74.37
2023-12-30T08:41:54.527Z,74.38
2023-12-30T08:44:22.433Z,74.37
2023-12-30T08:46:50.441Z,74.14
2023-12-30T08:49:18.612Z,74.49
2023-12-30T08:51:46.669Z,74.67
2023-12-30T08:54:15.923Z,74.74
2023-12-30T08:56:43.901Z,74.39
2023-12-30T08:59:11.829Z,75.02
2023-12-30T09:01:40.043Z,75.25
2023-12-30T09:04:08.282Z,75.52
2023-12-30T09:06:36.350Z,75.36
2023-12-30T09:09:05.540Z,75.44
2023-12-30T09:11:38.816Z,75.35
2023-12-30T09:14:07.473Z,75.15
2023-12-30T09:16:36.294Z,75.21
2023-12-30T09:19:05.173Z,75.24
2023-12-30T09:21:33.274Z,75.41
2023-12-30T09:24:01.278Z,75.33
2023-12-30T09:26:29.424Z,75.34
2023-12-30T09:28:58.755Z,75.51
2023-12-30T09:31:28.142Z,75.44
2023-12-30T09:33:55.170Z,76.02
2023-12-30T09:36:23.120Z,75.55
2023-12-30T09:38:51.094Z,75.60
2023-12-30T09:41:22.537Z,75.95
2023-12-30T09:43:51.895Z,75.74
2023-12-30T09:46:23.080Z,76.01
2023-12-30T09:48:52.244Z,75.72
2023-12-30T09:51:20.310Z,76.18
2023-12-30T09:53:48.312Z,75.85
2023-12-30T09:56:17.452Z,75.44
2023-12-30T09:58:46.290Z,76.17
2023-12-30T10:01:14.565Z,76.27
2023-12-30T10:03:45.144Z,75.72
2023-12-30T10:06:15.410Z,76.20
2023-12-30T10:08:44.079Z,76.82
2023-12-30T10:11:12.921Z,76.65
2023-12-30T10:13:41.081Z,77.06
2023-12-30T10:16:09.812Z,76.92
2023-12-30T10:18:38.901Z,77.03
2023-12-30T10:21:09.413Z,76.67
2023-12-30T10:23:39.086Z,76.83
2023-12-30T10:26:06.976Z,77.36
2023-12-30T10:28:35.139Z,77.29
2023-12-30T10:31:04.090Z,77.83
2023-12-30T10:33:33.955Z,77.89
2023-12-30T10:36:02.049Z,78.95
2023-12-30T10:38:31.549Z,78.98
2023-12-30T10:40:59.736Z,79.06
2023-12-30T10:43:27.597Z,78.64
2023-12-30T10:45:59.231Z,79.11
2023-12-30T10:48:32.856Z,78.76
2023-12-30T10:51:02.195Z,79.02
2023-12-30T10:53:33.975Z,78.60
2023-12-30T10:56:02.964Z,78.81
2023-12-30T10:58:34.481Z,78.74
2023-12-30T11:01:04.762Z,78.77
2023-12-30T11:03:34.075Z,78.32
2023-12-30T11:06:08.583Z,78.82
2023-12-30T11:08:42.961Z,79.37
2023-12-30T11:11:13.815Z,79.15
2023-12-30T11:13:44.016Z,78.65
2023-12-30T11:16:16.505Z,78.89
2023-12-30T11:18:50.882Z,79.00
2023-12-30T11:21:35.164Z,78.13
2023-12-30T11:24:07.187Z,78.60
2023-12-30T11:26:36.568Z,78.27
2023-12-30T11:29:05.458Z,78.27
2023-12-30T11:31:34.436Z,78.32
2023-12-30T11:34:02.933Z,77.89
2023-12-30T11:36:31.238Z,77.84
2023-12-30T11:39:00.740Z,78.79
2023-12-30T11:41:31.958Z,78.82
2023-12-30T11:44:03.385Z,79.13
2023-12-30T11:46:32.633Z,78.96
2023-12-30T11:49:01.826Z,78.36
2023-12-30T11:51:31.389Z,78.29
2023-12-30T11:54:02.696Z,78.33
2023-12-30T11:56:32.280Z,78.58
2023-12-30T11:59:01.219Z,79.13
2023-12-30T12:01:29.395Z,79.33
2023-12-30T12:03:57.661Z,79.51
2023-12-30T12:06:25.967Z,80.18
2023-12-30T12:08:53.953Z,79.91
2023-12-30T12:11:21.896Z,80.31
2023-12-30T12:13:57.878Z,80.79
2023-12-30T12:16:27.076Z,80.38
2023-12-30T12:18:55.530Z,81.09
2023-12-30T12:21:23.609Z,80.79
2023-12-30T12:23:51.640Z,80.78
2023-12-30T12:26:19.636Z,81.48
2023-12-30T12:28:47.560Z,81.04
2023-12-30T12:31:20.596Z,81.81
2023-12-30T12:33:48.652Z,81.58
2023-12-30T12:36:18.877Z,81.47
2023-12-30T12:38:47.171Z,82.40
2023-12-30T12:41:15.085Z,81.97
2023-12-30T12:43:43.376Z,82.45
2023-12-30T12:46:12.329Z,82.14
2023-12-30T12:48:41.808Z,82.52
2023-12-30T12:51:09.743Z,82.93
2023-12-30T12:53:38.286Z,82.16
2023-12-30T12:56:06.308Z,82.47
2023-12-30T12:58:34.315Z,82.48
2023-12-30T13:01:04.613Z,83.47
2023-12-30T13:03:32.750Z,83.26
2023-12-30T13:06:13.880Z,83.23
2023-12-30T13:08:42.650Z,83.21
2023-12-30T13:11:10.568Z,82.76
2023-12-30T13:13:38.570Z,83.04
2023-12-30T13:16:07.727Z,83.67
2023-12-30T13:18:35.812Z,82.67
2023-12-30T13:21:07.452Z,83.59
2023-12-30T13:23:35.403Z,83.08
2023-12-30T13:26:05.137Z,83.54
2023-12-30T13:28:33.340Z,82.97
2023-12-30T13:31:01.353Z,83.14
2023-12-30T13:33:29.531Z,82.92
2023-12-30T13:35:57.407Z,83.50
2023-12-30T13:38:28.911Z,83.13
2023-12-30T13:41:01.288Z,83.48
2023-12-30T13:43:29.442Z,83.13
2023-12-30T13:46:12.684Z,82.91
2023-12-30T13:48:54.660Z,83.01
2023-12-30T13:51:22.600Z,83.14
2023-12-30T13:53:53.861Z,82.95
2023-12-30T13:56:26.163Z,83.29
2023-12-30T13:58:58.038Z,82.72
2023-12-30T14:01:26.888Z,83.33
2023-12-30T14:03:57.083Z,82.62
2023-12-30T14:06:33.346Z,83.12
2023-12-30T14:09:19.222Z,83.26
2023-12-30T14:11:50.729Z,82.92
2023-12-30T14:14:18.812Z,82.97
2023-12-30T14:16:46.980Z,83.41
2023-12-30T14:19:17.160Z,83.27
2023-12-30T14:21:45.273Z,82.80
2023-12-30T14:24:17.174Z,82.82
2023-12-30T14:26:45.185Z,82.72
2023-12-30T14:29:13.119Z,83.06
2023-12-30T14:31:41.192Z,82.70
2023-12-30T14:34:10.736Z,82.50
2023-12-30T14:36:39.206Z,82.57
2023-12-30T14:39:10.098Z,82.65
2023-12-30T14:41:41.112Z,82.39
2023-12-30T14:44:09.279Z,82.92
2023-12-30T14:46:37.420Z,83.12
2023-12-30T14:49:05.406Z,82.64
2023-12-30T14:51:33.700Z,82.58
2023-12-30T14:54:01.569Z,82.66
2023-12-30T14:56:29.528Z,82.50
2023-12-30T14:58:59.165Z,83.34
2023-12-30T15:01:27.262Z,83.56
2023-12-30T15:03:59.581Z,83.02
2023-12-30T15:06:30.028Z,83.75
2023-12-30T15:08:59.755Z,83.60
2023-12-30T15:11:28.606Z,83.40
2023-12-30T15:13:58.551Z,83.73
2023-12-30T15:16:26.484Z,83.58
2023-12-30T15:18:54.457Z,83.99
2023-12-30T15:21:22.779Z,83.89
2023-12-30T15:23:50.920Z,83.54
2023-12-30T15:26:18.915Z,84.08
2023-12-30T15:28:46.839Z,84.05
2023-12-30T15:31:16.584Z,84.42
2023-12-30T15:33:44.678Z,83.56
2023-12-30T15:36:12.913Z,83.82
2023-12-30T15:38:40.955Z,84.30
2023-12-30T15:41:08.883Z,84.67
2023-12-30T15:43:37.344Z,84.32
2023-12-30T15:46:08.576Z,84.43
2023-12-30T15:48:39.674Z,85.30
2023-12-30T15:51:08.285Z,85.38
2023-12-30T15:53:36.551Z,84.62
2023-12-30T15:56:04.893Z,85.42
2023-12-30T15:58:32.956Z,85.10
2023-12-30T16:01:00.952Z,85.34
2023-12-30T16:03:28.945Z,85.08
2023-12-30T16:05:58.479Z,85.69
2023-12-30T16:08:27.365Z,85.61
2023-12-30T16:10:56.525Z,85.09
2023-12-30T16:13:24.486Z,85.15
2023-12-30T16:15:54.007Z,85.25
2023-12-30T16:18:22.139Z,84.58
2023-12-30T16:20:50.083Z,85.12
2023-12-30T16:23:19.487Z,85.50
2023-12-30T16:25:48.505Z,85.17
2023-12-30T16:28:17.324Z,84.41
2023-12-30T16:30:45.421Z,84.26
2023-12-30T16:33:13.548Z,85.21
2023-12-30T16:35:41.700Z,84.79
2023-12-30T16:38:09.657Z,85.20
2023-12-30T16:40:39.866Z,84.80
2023-12-30T16:43:08.235Z,85.28
2023-12-30T16:45:36.857Z,84.63
2023-12-30T16:48:05.486Z,85.15
2023-12-30T16:50:33.528Z,84.68
2023-12-30T16:53:05.221Z,85.19
2023-12-30T16:55:33.664Z,84.91
2023-12-30T16:58:03.225Z,85.24
2023-12-30T17:00:31.370Z,84.86
2023-12-30T17:02:59.506Z,85.45
2023-12-30T17:05:27.720Z,84.90
2023-12-30T17:07:55.616Z,84.67
2023-12-30T17:10:23.591Z,85.31
2023-12-30T17:12:51.581Z,86.14
2023-12-30T17:15:20.914Z,85.39
2023-12-30T17:17:48.959Z,85.37
2023-12-30T17:20:17.040Z,84.82
2023-12-30T17:22:45.013Z,84.69
2023-12-30T17:25:14.856Z,85.10
2023-12-30T17:27:42.891Z,85.08
2023-12-30T17:30:11.352Z,85.01
2023-12-30T17:32:40.690Z,85.63
2023-12-30T17:35:09.778Z,85.29
2023-12-30T17:37:38.244Z,85.87
2023-12-30T17:40:06.969Z,85.67
2023-12-30T17:42:36.073Z,86.14
2023-12-30T17:45:04.462Z,85.24
2023-12-30T17:47:34.674Z,85.13
2023-12-30T17:50:08.192Z,85.06
2023-12-30T17:52:36.583Z,86.06
2023-12-30T17:55:05.897Z,85.89
2023-12-30T17:57:34.032Z,85.47
2023-12-30T18:00:02.025Z,86.01
2023-12-30T18:02:33.456Z,85.87
2023-12-30T18:05:01.751Z,86.21
2023-12-30T18:07:31.237Z,84.97
2023-12-30T18:09:59.221Z,85.37
2023-12-30T18:12:29.084Z,84.98
2023-12-30T18:14:56.973Z,84.89
2023-12-30T18:17:24.883Z,84.53
2023-12-30T18:19:52.894Z,83.71
2023-12-30T18:22:20.914Z,83.69
2023-12-30T18:24:50.294Z,83.43
2023-12-30T18:27:18.321Z,84.30
2023-12-30T18:29:46.778Z,84.08
2023-12-30T18:32:14.651Z,84.01
2023-12-30T18:34:42.705Z,83.80
2023-12-30T18:37:15.892Z,84.73
2023-12-30T18:39:44.028Z,83.75
2023-12-30T18:42:13.321Z,83.87
2023-12-30T18:44:41.274Z,82.82
2023-12-30T18:47:09.150Z,83.44
2023-12-30T18:49:37.171Z,83.28
2023-12-30T18:52:05.577Z,83.35
2023-12-30T18:54:33.550Z,83.99
2023-12-30T18:57:01.453Z,83.93
2023-12-30T18:59:30.740Z,83.66
2023-12-30T19:02:01.344Z,84.04
2023-12-30T19:04:31.991Z,83.66
2023-12-30T19:07:00.823Z,83.64
2023-12-30T19:09:28.719Z,83.37
2023-12-30T19:11:56.960Z,84.03
2023-12-30T19:14:24.868Z,84.00
2023-12-30T19:16:54.237Z,84.05
2023-12-30T19:19:22.214Z,84.32
2023-12-30T19:21:50.174Z,84.33
2023-12-30T19:24:18.303Z,84.61
2023-12-30T19:26:46.604Z,84.75
2023-12-30T19:29:14.622Z,84.04
2023-12-30T19:31:43.091Z,83.22
2023-12-30T19:34:12.420Z,82.18
2023-12-30T19:36:40.855Z,82.07
2023-12-30T19:39:09.498Z,82.01
2023-12-30T19:41:38.366Z,80.88
2023-12-30T19:44:07.425Z,80.61
2023-12-30T19:46:35.807Z,81.92
2023-12-30T19:49:05.659Z,82.25
2023-12-30T19:51:35.283Z,82.01
2023-12-30T19:54:03.881Z,82.19
2023-12-30T19:56:31.940Z,81.96
2023-12-30T19:58:59.866Z,81.60
2023-12-30T20:01:27.924Z,81.50
2023-12-30T20:03:55.982Z,81.51
2023-12-30T20:06:23.959Z,81.55
2023-12-30T20:08:53.256Z,81.01
2023-12-30T20:11:22.388Z,81.18
2023-12-30T20:13:51.133Z,80.74
2023-12-30T20:16:19.140Z,80.53
2023-12-30T20:18:47.220Z,79.84
2023-12-30T20:21:15.889Z,78.99
2023-12-30T20:23:43.828Z,79.66
2023-12-30T20:26:13.093Z,80.32
2023-12-30T20:28:41.143Z,79.99
2023-12-30T20:31:09.495Z,79.86
2023-12-30T20:33:38.083Z,79.20
2023-12-30T20:36:07.045Z,79.56
2023-12-30T20:38:35.741Z,80.10
2023-12-30T20:41:03.834Z,80.79
2023-12-30T20:43:33.227Z,80.53
2023-12-30T20:46:01.424Z,80.88
2023-12-30T20:48:29.602Z,81.38
2023-12-30T20:50:57.619Z,80.81
2023-12-30T20:53:25.594Z,81.19
2023-12-30T20:55:53.508Z,80.97
2023-12-30T20:58:21.532Z,80.43
2023-12-30T21:00:50.830Z,80.06
2023-12-30T21:03:18.789Z,79.41
2023-12-30T21:05:46.801Z,79.27
2023-12-30T21:08:14.742Z,79.69
2023-12-30T21:10:42.939Z,80.09
2023-12-30T21:13:10.979Z,79.85
2023-12-30T21:15:39.076Z,80.00
2023-12-30T21:18:10.846Z,79.77
2023-12-30T21:20:38.942Z,79.99
2023-12-30T21:23:07.217Z,79.50
2023-12-30T21:25:35.239Z,79.44
2023-12-30T21:28:05.892Z,79.20
2023-12-30T21:30:34.164Z,78.69
2023-12-30T21:33:02.448Z,78.77
2023-12-30T21:35:32.564Z,78.65
2023-12-30T21:38:00.548Z,78.84
2023-12-30T21:40:29.442Z,78.54
2023-12-30T21:42:57.433Z,78.44
2023-12-30T21:45:25.320Z,78.71
2023-12-30T21:47:53.382Z,78.34
2023-12-30T21:50:21.468Z,77.79
2023-12-30T21:52:52.937Z,77.86
2023-12-30T21:55:21.280Z,78.17
2023-12-30T21:57:49.873Z,77.85
2023-12-30T22:00:18.225Z,77.65
2023-12-30T22:02:47.496Z,77.84
2023-12-30T22:05:18.650Z,77.61
2023-12-30T22:07:46.646Z,77.78
2023-12-30T22:10:16.724Z,78.11
2023-12-30T22:12:43.716Z,78.82
2023-12-30T22:15:11.569Z,78.05
2023-12-30T22:17:39.784Z,78.09
2023-12-30T22:20:09.576Z,77.25
2023-12-30T22:22:38.014Z,77.98
2023-12-30T22:25:06.419Z,77.92
2023-12-30T22:27:36.527Z,77.92
2023-12-30T22:30:04.866Z,78.20
2023-12-30T22:32:32.994Z,78.01
2023-12-30T22:35:05.155Z,78.36
2023-12-30T22:37:33.709Z,77.90
2023-12-30T22:40:01.583Z,78.11
2023-12-30T22:42:29.466Z,77.54
2023-12-30T22:44:58.777Z,77.53
2023-12-30T22:47:26.777Z,77.46
2023-12-30T22:49:54.708Z,77.39
2023-12-30T22:52:22.671Z,77.64
2023-12-30T22:54:50.568Z,77.81
2023-12-30T22:57:18.512Z,77.74
2023-12-30T22:59:46.381Z,77.26
2023-12-30T23:02:15.660Z,77.42
2023-12-30T23:04:43.706Z,78.12
2023-12-30T23:07:11.961Z,77.97
2023-12-30T23:09:40.064Z,78.56
2023-12-30T23:12:08.286Z,79.07
2023-12-30T23:14:36.193Z,78.74
2023-12-30T23:17:04.350Z,78.77
2023-12-30T23:19:33.913Z,79.20
2023-12-30T23:22:01.954Z,80.11
2023-12-30T23:24:29.925Z,79.38
2023-12-30T23:26:57.932Z,79.40
2023-12-30T23:29:27.006Z,79.01
2023-12-30T23:31:55.639Z,78.41
2023-12-30T23:34:24.951Z,78.34
2023-12-30T23:36:57.528Z,79.21
2023-12-30T23:39:26.175Z,79.19
2023-12-30T23:41:54.112Z,78.91
2023-12-30T23:44:22.019Z,78.86
2023-12-30T23:46:50.002Z,78.25
2023-12-30T23:49:18.513Z,78.14
2023-12-30T23:51:46.573Z,78.48
2023-12-30T23:54:15.905Z,78.27
2023-12-30T23:56:44.313Z,79.00
2023-12-30T23:59:14.087Z,79.11
